sensor_id;sensor_type;location;lat;lon;timestamp;P1;durP1;ratioP1;P2;durP2;ratioP2
68315;SDS011;55508;54.368;18.406;2022-08-07T00:01:18;8.75;;;6.20;;
68315;SDS011;55508;54.368;18.406;2022-08-07T00:04:06;5.00;;;4.60;;
68315;SDS011;55508;54.368;18.406;2022-08-07T00:06:37;5.32;;;4.82;;
68315;SDS011;55508;54.368;18.406;2022-08-07T00:09:12;5.93;;;5.40;;
68315;SDS011;55508;54.368;18.406;2022-08-07T00:11:43;5.93;;;5.25;;
68315;SDS011;55508;54.368;18.406;2022-08-07T00:14:22;6.07;;;4.70;;
68315;SDS011;55508;54.368;18.406;2022-08-07T00:16:56;6.45;;;4.50;;
68315;SDS011;55508;54.368;18.406;2022-08-07T00:19:24;10.82;;;4.60;;
68315;SDS011;55508;54.368;18.406;2022-08-07T00:22:11;7.18;;;4.65;;
68315;SDS011;55508;54.368;18.406;2022-08-07T00:24:50;8.02;;;5.32;;
68315;SDS011;55508;54.368;18.406;2022-08-07T00:27:17;6.03;;;4.88;;
68315;SDS011;55508;54.368;18.406;2022-08-07T00:29:48;5.45;;;4.90;;
68315;SDS011;55508;54.368;18.406;2022-08-07T00:32:16;6.75;;;5.10;;
68315;SDS011;55508;54.368;18.406;2022-08-07T00:34:53;6.97;;;5.15;;
68315;SDS011;55508;54.368;18.406;2022-08-07T00:37:20;5.55;;;4.60;;
68315;SDS011;55508;54.368;18.406;2022-08-07T00:39:48;6.28;;;4.68;;
68315;SDS011;55508;54.368;18.406;2022-08-07T00:44:54;7.13;;;4.63;;
68315;SDS011;55508;54.368;18.406;2022-08-07T00:47:21;11.40;;;5.57;;
68315;SDS011;55508;54.368;18.406;2022-08-07T00:50:08;6.18;;;5.40;;
68315;SDS011;55508;54.368;18.406;2022-08-07T00:52:55;7.03;;;5.00;;
68315;SDS011;55508;54.368;18.406;2022-08-07T00:55:23;7.70;;;5.43;;
68315;SDS011;55508;54.368;18.406;2022-08-07T00:58:10;7.95;;;6.47;;
68315;SDS011;55508;54.368;18.406;2022-08-07T01:00:38;7.57;;;6.90;;
68315;SDS011;55508;54.368;18.406;2022-08-07T01:03:20;9.90;;;6.57;;
68315;SDS011;55508;54.368;18.406;2022-08-07T01:06:07;6.15;;;5.57;;
68315;SDS011;55508;54.368;18.406;2022-08-07T01:08:38;10.15;;;6.38;;
68315;SDS011;55508;54.368;18.406;2022-08-07T01:11:09;6.72;;;6.03;;
68315;SDS011;55508;54.368;18.406;2022-08-07T01:13:56;7.95;;;6.45;;
68315;SDS011;55508;54.368;18.406;2022-08-07T01:16:23;10.70;;;6.93;;
68315;SDS011;55508;54.368;18.406;2022-08-07T01:18:58;7.70;;;6.90;;
68315;SDS011;55508;54.368;18.406;2022-08-07T01:21:26;8.20;;;7.32;;
68315;SDS011;55508;54.368;18.406;2022-08-07T01:23:56;8.65;;;6.97;;
68315;SDS011;55508;54.368;18.406;2022-08-07T01:26:23;8.00;;;6.93;;
68315;SDS011;55508;54.368;18.406;2022-08-07T01:28:52;10.23;;;7.28;;
68315;SDS011;55508;54.368;18.406;2022-08-07T01:31:23;10.07;;;7.07;;
68315;SDS011;55508;54.368;18.406;2022-08-07T01:34:11;10.35;;;7.80;;
68315;SDS011;55508;54.368;18.406;2022-08-07T01:36:41;8.85;;;6.70;;
68315;SDS011;55508;54.368;18.406;2022-08-07T01:39:16;7.45;;;6.30;;
68315;SDS011;55508;54.368;18.406;2022-08-07T01:41:56;7.70;;;6.90;;
68315;SDS011;55508;54.368;18.406;2022-08-07T01:44:44;8.52;;;6.72;;
68315;SDS011;55508;54.368;18.406;2022-08-07T01:47:14;8.48;;;6.75;;
68315;SDS011;55508;54.368;18.406;2022-08-07T01:50:02;7.03;;;6.43;;
68315;SDS011;55508;54.368;18.406;2022-08-07T01:52:30;9.05;;;6.70;;
68315;SDS011;55508;54.368;18.406;2022-08-07T01:54:59;7.85;;;6.18;;
68315;SDS011;55508;54.368;18.406;2022-08-07T01:57:32;8.05;;;6.30;;
68315;SDS011;55508;54.368;18.406;2022-08-07T02:00:22;10.32;;;6.28;;
68315;SDS011;55508;54.368;18.406;2022-08-07T02:03:02;7.80;;;6.00;;
68315;SDS011;55508;54.368;18.406;2022-08-07T02:05:54;8.55;;;6.80;;
68315;SDS011;55508;54.368;18.406;2022-08-07T02:08:32;8.00;;;6.40;;
68315;SDS011;55508;54.368;18.406;2022-08-07T02:11:04;9.68;;;6.10;;
68315;SDS011;55508;54.368;18.406;2022-08-07T02:13:37;7.28;;;6.53;;
68315;SDS011;55508;54.368;18.406;2022-08-07T02:16:27;8.48;;;6.03;;
68315;SDS011;55508;54.368;18.406;2022-08-07T02:19:04;8.55;;;6.10;;
68315;SDS011;55508;54.368;18.406;2022-08-07T02:21:57;8.48;;;6.40;;
68315;SDS011;55508;54.368;18.406;2022-08-07T02:24:26;7.15;;;6.30;;
68315;SDS011;55508;54.368;18.406;2022-08-07T02:26:56;7.60;;;6.50;;
68315;SDS011;55508;54.368;18.406;2022-08-07T02:29:27;7.28;;;5.75;;
68315;SDS011;55508;54.368;18.406;2022-08-07T02:31:56;6.43;;;5.93;;
68315;SDS011;55508;54.368;18.406;2022-08-07T02:34:25;7.38;;;6.47;;
68315;SDS011;55508;54.368;18.406;2022-08-07T02:36:55;7.00;;;6.10;;
68315;SDS011;55508;54.368;18.406;2022-08-07T02:39:25;7.70;;;6.67;;
68315;SDS011;55508;54.368;18.406;2022-08-07T02:42:11;8.00;;;6.18;;
68315;SDS011;55508;54.368;18.406;2022-08-07T02:44:43;6.60;;;6.03;;
68315;SDS011;55508;54.368;18.406;2022-08-07T02:47:16;8.10;;;6.03;;
68315;SDS011;55508;54.368;18.406;2022-08-07T02:49:51;6.85;;;5.90;;
68315;SDS011;55508;54.368;18.406;2022-08-07T02:52:31;6.75;;;6.00;;
68315;SDS011;55508;54.368;18.406;2022-08-07T02:55:07;7.72;;;5.80;;
68315;SDS011;55508;54.368;18.406;2022-08-07T02:57:56;6.07;;;5.57;;
68315;SDS011;55508;54.368;18.406;2022-08-07T03:00:25;7.25;;;5.63;;
68315;SDS011;55508;54.368;18.406;2022-08-07T03:02:56;6.97;;;5.57;;
68315;SDS011;55508;54.368;18.406;2022-08-07T03:05:25;6.65;;;4.93;;
68315;SDS011;55508;54.368;18.406;2022-08-07T03:08:04;9.15;;;5.60;;
68315;SDS011;55508;54.368;18.406;2022-08-07T03:10:41;5.80;;;5.05;;
68315;SDS011;55508;54.368;18.406;2022-08-07T03:13:17;8.70;;;4.55;;
68315;SDS011;55508;54.368;18.406;2022-08-07T03:15:47;8.25;;;5.07;;
68315;SDS011;55508;54.368;18.406;2022-08-07T03:18:28;6.18;;;5.00;;
68315;SDS011;55508;54.368;18.406;2022-08-07T03:21:04;5.45;;;4.95;;
68315;SDS011;55508;54.368;18.406;2022-08-07T03:23:38;6.38;;;5.30;;
68315;SDS011;55508;54.368;18.406;2022-08-07T03:26:29;7.03;;;4.80;;
68315;SDS011;55508;54.368;18.406;2022-08-07T03:29:00;5.50;;;5.00;;
68315;SDS011;55508;54.368;18.406;2022-08-07T03:31:31;7.20;;;4.77;;
68315;SDS011;55508;54.368;18.406;2022-08-07T03:34:13;5.83;;;5.40;;
68315;SDS011;55508;54.368;18.406;2022-08-07T03:36:45;6.03;;;4.65;;
68315;SDS011;55508;54.368;18.406;2022-08-07T03:39:14;4.60;;;4.20;;
68315;SDS011;55508;54.368;18.406;2022-08-07T03:42:03;5.63;;;4.45;;
68315;SDS011;55508;54.368;18.406;2022-08-07T03:44:32;6.82;;;4.47;;
68315;SDS011;55508;54.368;18.406;2022-08-07T03:47:02;6.90;;;4.90;;
68315;SDS011;55508;54.368;18.406;2022-08-07T03:49:44;5.65;;;5.15;;
68315;SDS011;55508;54.368;18.406;2022-08-07T03:52:21;7.80;;;5.10;;
68315;SDS011;55508;54.368;18.406;2022-08-07T03:54:59;5.25;;;4.70;;
68315;SDS011;55508;54.368;18.406;2022-08-07T03:57:35;8.00;;;5.03;;
68315;SDS011;55508;54.368;18.406;2022-08-07T04:00:28;6.95;;;5.30;;
68315;SDS011;55508;54.368;18.406;2022-08-07T04:03:02;6.30;;;4.97;;
68315;SDS011;55508;54.368;18.406;2022-08-07T04:05:39;6.38;;;4.93;;
68315;SDS011;55508;54.368;18.406;2022-08-07T04:08:16;4.55;;;4.25;;
68315;SDS011;55508;54.368;18.406;2022-08-07T04:10:47;5.28;;;4.45;;
68315;SDS011;55508;54.368;18.406;2022-08-07T04:13:36;5.90;;;3.92;;
68315;SDS011;55508;54.368;18.406;2022-08-07T04:16:25;8.80;;;5.03;;
68315;SDS011;55508;54.368;18.406;2022-08-07T04:19:00;5.00;;;4.38;;
68315;SDS011;55508;54.368;18.406;2022-08-07T04:21:41;4.88;;;4.43;;
68315;SDS011;55508;54.368;18.406;2022-08-07T04:24:28;4.43;;;4.03;;
68315;SDS011;55508;54.368;18.406;2022-08-07T04:27:04;6.05;;;4.47;;
68315;SDS011;55508;54.368;18.406;2022-08-07T04:29:42;5.57;;;4.72;;
68315;SDS011;55508;54.368;18.406;2022-08-07T04:32:48;4.75;;;4.22;;
68315;SDS011;55508;54.368;18.406;2022-08-07T04:35:27;5.30;;;4.40;;
68315;SDS011;55508;54.368;18.406;2022-08-07T04:38:08;4.40;;;4.00;;
68315;SDS011;55508;54.368;18.406;2022-08-07T04:40:42;5.65;;;4.00;;
68315;SDS011;55508;54.368;18.406;2022-08-07T04:43:27;4.57;;;4.15;;
68315;SDS011;55508;54.368;18.406;2022-08-07T04:49:06;6.40;;;3.75;;
68315;SDS011;55508;54.368;18.406;2022-08-07T04:55:30;3.92;;;3.63;;
68315;SDS011;55508;54.368;18.406;2022-08-07T05:01:40;5.10;;;3.80;;
68315;SDS011;55508;54.368;18.406;2022-08-07T05:04:14;6.00;;;3.35;;
68315;SDS011;55508;54.368;18.406;2022-08-07T05:07:03;4.47;;;3.25;;
68315;SDS011;55508;54.368;18.406;2022-08-07T05:12:58;5.55;;;2.72;;
68315;SDS011;55508;54.368;18.406;2022-08-07T05:15:49;3.00;;;2.70;;
68315;SDS011;55508;54.368;18.406;2022-08-07T05:21:01;2.92;;;2.70;;
68315;SDS011;55508;54.368;18.406;2022-08-07T05:24:18;3.35;;;3.05;;
68315;SDS011;55508;54.368;18.406;2022-08-07T05:26:25;3.25;;;2.83;;
68315;SDS011;55508;54.368;18.406;2022-08-07T05:29:01;4.03;;;2.85;;
68315;SDS011;55508;54.368;18.406;2022-08-07T05:31:33;3.25;;;2.60;;
68315;SDS011;55508;54.368;18.406;2022-08-07T05:34:10;3.50;;;2.60;;
68315;SDS011;55508;54.368;18.406;2022-08-07T05:36:50;4.57;;;2.80;;
68315;SDS011;55508;54.368;18.406;2022-08-07T05:39:32;4.30;;;1.73;;
68315;SDS011;55508;54.368;18.406;2022-08-07T05:42:21;5.90;;;1.85;;
68315;SDS011;55508;54.368;18.406;2022-08-07T05:45:04;3.03;;;1.70;;
68315;SDS011;55508;54.368;18.406;2022-08-07T05:47:55;3.73;;;1.77;;
68315;SDS011;55508;54.368;18.406;2022-08-07T05:50:30;2.45;;;1.60;;
68315;SDS011;55508;54.368;18.406;2022-08-07T05:53:00;2.33;;;1.73;;
68315;SDS011;55508;54.368;18.406;2022-08-07T05:55:32;2.70;;;1.88;;
68315;SDS011;55508;54.368;18.406;2022-08-07T05:58:22;2.95;;;1.60;;
68315;SDS011;55508;54.368;18.406;2022-08-07T06:01:04;4.95;;;1.83;;
68315;SDS011;55508;54.368;18.406;2022-08-07T06:03:40;3.25;;;1.50;;
68315;SDS011;55508;54.368;18.406;2022-08-07T06:06:23;3.35;;;1.60;;
68315;SDS011;55508;54.368;18.406;2022-08-07T06:08:59;1.88;;;1.20;;
68315;SDS011;55508;54.368;18.406;2022-08-07T06:11:32;1.92;;;1.00;;
68315;SDS011;55508;54.368;18.406;2022-08-07T06:14:01;3.78;;;1.15;;
68315;SDS011;55508;54.368;18.406;2022-08-07T06:16:47;3.10;;;1.20;;
68315;SDS011;55508;54.368;18.406;2022-08-07T06:19:25;2.45;;;1.00;;
68315;SDS011;55508;54.368;18.406;2022-08-07T06:22:15;3.10;;;0.90;;
68315;SDS011;55508;54.368;18.406;2022-08-07T06:25:03;5.03;;;0.95;;
68315;SDS011;55508;54.368;18.406;2022-08-07T06:27:31;3.75;;;0.77;;
68315;SDS011;55508;54.368;18.406;2022-08-07T06:30:19;2.35;;;0.73;;
68315;SDS011;55508;54.368;18.406;2022-08-07T06:33:05;2.70;;;0.90;;
68315;SDS011;55508;54.368;18.406;2022-08-07T06:35:44;6.65;;;0.90;;
68315;SDS011;55508;54.368;18.406;2022-08-07T06:38:32;1.60;;;0.60;;
68315;SDS011;55508;54.368;18.406;2022-08-07T06:41:03;3.85;;;0.50;;
68315;SDS011;55508;54.368;18.406;2022-08-07T06:43:39;3.38;;;0.88;;
68315;SDS011;55508;54.368;18.406;2022-08-07T06:46:17;3.72;;;0.80;;
68315;SDS011;55508;54.368;18.406;2022-08-07T06:49:00;2.53;;;0.73;;
68315;SDS011;55508;54.368;18.406;2022-08-07T06:51:33;3.80;;;0.80;;
68315;SDS011;55508;54.368;18.406;2022-08-07T06:54:19;2.08;;;0.60;;
68315;SDS011;55508;54.368;18.406;2022-08-07T06:57:07;3.10;;;0.60;;
68315;SDS011;55508;54.368;18.406;2022-08-07T06:59:38;1.13;;;0.40;;
68315;SDS011;55508;54.368;18.406;2022-08-07T07:02:27;2.80;;;0.60;;
68315;SDS011;55508;54.368;18.406;2022-08-07T07:05:14;4.40;;;0.80;;
68315;SDS011;55508;54.368;18.406;2022-08-07T07:08:01;1.52;;;0.60;;
68315;SDS011;55508;54.368;18.406;2022-08-07T07:10:38;1.05;;;0.50;;
68315;SDS011;55508;54.368;18.406;2022-08-07T07:13:25;2.03;;;0.68;;
68315;SDS011;55508;54.368;18.406;2022-08-07T07:16:21;2.35;;;1.02;;
68315;SDS011;55508;54.368;18.406;2022-08-07T07:18:56;1.17;;;0.55;;
68315;SDS011;55508;54.368;18.406;2022-08-07T07:21:46;1.08;;;0.45;;
68315;SDS011;55508;54.368;18.406;2022-08-07T07:24:34;2.17;;;0.60;;
68315;SDS011;55508;54.368;18.406;2022-08-07T07:27:02;2.22;;;0.55;;
68315;SDS011;55508;54.368;18.406;2022-08-07T07:29:32;2.47;;;0.90;;
68315;SDS011;55508;54.368;18.406;2022-08-07T07:32:22;5.47;;;0.60;;
68315;SDS011;55508;54.368;18.406;2022-08-07T07:34:53;1.60;;;0.50;;
68315;SDS011;55508;54.368;18.406;2022-08-07T07:37:22;3.22;;;0.50;;
68315;SDS011;55508;54.368;18.406;2022-08-07T07:40:13;1.10;;;0.50;;
68315;SDS011;55508;54.368;18.406;2022-08-07T07:42:42;2.90;;;0.47;;
68315;SDS011;55508;54.368;18.406;2022-08-07T07:45:20;0.85;;;0.50;;
68315;SDS011;55508;54.368;18.406;2022-08-07T07:51:00;1.85;;;0.40;;
68315;SDS011;55508;54.368;18.406;2022-08-07T07:53:35;1.67;;;0.70;;
68315;SDS011;55508;54.368;18.406;2022-08-07T07:56:18;5.32;;;0.50;;
68315;SDS011;55508;54.368;18.406;2022-08-07T07:58:59;4.45;;;0.90;;
68315;SDS011;55508;54.368;18.406;2022-08-07T08:01:29;1.35;;;0.55;;
68315;SDS011;55508;54.368;18.406;2022-08-07T08:04:17;2.13;;;0.70;;
68315;SDS011;55508;54.368;18.406;2022-08-07T08:06:51;1.55;;;0.50;;
68315;SDS011;55508;54.368;18.406;2022-08-07T08:09:19;2.25;;;0.50;;
68315;SDS011;55508;54.368;18.406;2022-08-07T08:11:50;1.98;;;0.80;;
68315;SDS011;55508;54.368;18.406;2022-08-07T08:14:29;1.10;;;0.50;;
68315;SDS011;55508;54.368;18.406;2022-08-07T08:17:03;3.80;;;0.50;;
68315;SDS011;55508;54.368;18.406;2022-08-07T08:20:00;2.08;;;0.40;;
68315;SDS011;55508;54.368;18.406;2022-08-07T08:22:49;2.42;;;0.63;;
68315;SDS011;55508;54.368;18.406;2022-08-07T08:25:37;3.58;;;0.80;;
68315;SDS011;55508;54.368;18.406;2022-08-07T08:28:32;1.83;;;0.70;;
68315;SDS011;55508;54.368;18.406;2022-08-07T08:31:05;1.70;;;0.40;;
68315;SDS011;55508;54.368;18.406;2022-08-07T08:33:48;2.15;;;0.57;;
68315;SDS011;55508;54.368;18.406;2022-08-07T08:36:24;3.53;;;1.00;;
68315;SDS011;55508;54.368;18.406;2022-08-07T08:38:55;2.03;;;0.60;;
68315;SDS011;55508;54.368;18.406;2022-08-07T08:50:21;2.75;;;0.80;;
68315;SDS011;55508;54.368;18.406;2022-08-07T08:55:53;2.00;;;0.70;;
68315;SDS011;55508;54.368;18.406;2022-08-07T09:10:06;3.63;;;0.68;;
68315;SDS011;55508;54.368;18.406;2022-08-07T09:12:42;3.90;;;0.70;;
68315;SDS011;55508;54.368;18.406;2022-08-07T09:22:01;4.50;;;0.70;;
68315;SDS011;55508;54.368;18.406;2022-08-07T09:31:09;2.08;;;0.50;;
68315;SDS011;55508;54.368;18.406;2022-08-07T09:37:01;1.30;;;0.50;;
68315;SDS011;55508;54.368;18.406;2022-08-07T09:49:08;3.45;;;0.90;;
68315;SDS011;55508;54.368;18.406;2022-08-07T09:57:52;5.03;;;0.60;;
68315;SDS011;55508;54.368;18.406;2022-08-07T10:18:59;1.70;;;0.55;;
68315;SDS011;55508;54.368;18.406;2022-08-07T10:25:02;3.03;;;0.70;;
68315;SDS011;55508;54.368;18.406;2022-08-07T10:30:56;1.77;;;0.68;;
68315;SDS011;55508;54.368;18.406;2022-08-07T10:33:50;1.50;;;0.70;;
68315;SDS011;55508;54.368;18.406;2022-08-07T10:57:38;3.72;;;0.52;;
68315;SDS011;55508;54.368;18.406;2022-08-07T11:00:22;6.72;;;0.80;;
68315;SDS011;55508;54.368;18.406;2022-08-07T11:09:00;4.30;;;0.73;;
68315;SDS011;55508;54.368;18.406;2022-08-07T11:15:05;3.67;;;0.75;;
68315;SDS011;55508;54.368;18.406;2022-08-07T11:32:14;1.42;;;0.40;;
68315;SDS011;55508;54.368;18.406;2022-08-07T11:34:55;1.20;;;0.40;;
68315;SDS011;55508;54.368;18.406;2022-08-07T11:40:45;2.80;;;0.50;;
68315;SDS011;55508;54.368;18.406;2022-08-07T11:46:48;1.50;;;0.50;;
68315;SDS011;55508;54.368;18.406;2022-08-07T11:52:54;3.55;;;0.40;;
68315;SDS011;55508;54.368;18.406;2022-08-07T12:02:26;6.53;;;0.68;;
68315;SDS011;55508;54.368;18.406;2022-08-07T12:08:13;17.35;;;1.17;;
68315;SDS011;55508;54.368;18.406;2022-08-07T12:14:07;3.58;;;0.75;;
68315;SDS011;55508;54.368;18.406;2022-08-07T12:16:50;2.15;;;0.52;;
68315;SDS011;55508;54.368;18.406;2022-08-07T12:19:26;2.28;;;0.55;;
68315;SDS011;55508;54.368;18.406;2022-08-07T12:25:26;2.75;;;0.50;;
68315;SDS011;55508;54.368;18.406;2022-08-07T12:28:50;1.15;;;0.50;;
68315;SDS011;55508;54.368;18.406;2022-08-07T12:34:38;1.05;;;0.52;;
68315;SDS011;55508;54.368;18.406;2022-08-07T12:37:14;2.05;;;0.50;;
68315;SDS011;55508;54.368;18.406;2022-08-07T12:39:49;1.27;;;0.50;;
68315;SDS011;55508;54.368;18.406;2022-08-07T12:42:23;1.77;;;0.47;;
68315;SDS011;55508;54.368;18.406;2022-08-07T12:44:55;2.40;;;0.55;;
68315;SDS011;55508;54.368;18.406;2022-08-07T12:57:03;1.60;;;0.50;;
68315;SDS011;55508;54.368;18.406;2022-08-07T12:59:35;4.50;;;0.60;;
68315;SDS011;55508;54.368;18.406;2022-08-07T13:17:26;2.47;;;0.70;;
68315;SDS011;55508;54.368;18.406;2022-08-07T13:23:08;14.50;;;1.55;;
68315;SDS011;55508;54.368;18.406;2022-08-07T13:26:01;12.90;;;1.35;;
68315;SDS011;55508;54.368;18.406;2022-08-07T13:28:58;5.53;;;1.15;;
68315;SDS011;55508;54.368;18.406;2022-08-07T13:31:41;2.05;;;0.63;;
68315;SDS011;55508;54.368;18.406;2022-08-07T13:37:44;45.83;;;3.15;;
68315;SDS011;55508;54.368;18.406;2022-08-07T13:43:11;3.15;;;0.75;;
68315;SDS011;55508;54.368;18.406;2022-08-07T13:45:42;1.67;;;0.70;;
68315;SDS011;55508;54.368;18.406;2022-08-07T13:48:30;2.95;;;0.68;;
68315;SDS011;55508;54.368;18.406;2022-08-07T13:51:00;1.65;;;0.50;;
68315;SDS011;55508;54.368;18.406;2022-08-07T13:53:49;1.98;;;0.57;;
68315;SDS011;55508;54.368;18.406;2022-08-07T13:56:26;2.25;;;0.77;;
68315;SDS011;55508;54.368;18.406;2022-08-07T13:59:13;5.93;;;0.68;;
68315;SDS011;55508;54.368;18.406;2022-08-07T14:04:51;3.88;;;0.73;;
68315;SDS011;55508;54.368;18.406;2022-08-07T14:07:27;2.10;;;0.82;;
68315;SDS011;55508;54.368;18.406;2022-08-07T14:09:59;5.47;;;0.80;;
68315;SDS011;55508;54.368;18.406;2022-08-07T14:18:13;2.67;;;0.70;;
68315;SDS011;55508;54.368;18.406;2022-08-07T14:21:04;1.55;;;0.60;;
68315;SDS011;55508;54.368;18.406;2022-08-07T14:23:50;2.92;;;0.60;;
68315;SDS011;55508;54.368;18.406;2022-08-07T14:29:21;2.63;;;0.80;;
68315;SDS011;55508;54.368;18.406;2022-08-07T14:32:11;7.32;;;0.88;;
68315;SDS011;55508;54.368;18.406;2022-08-07T14:34:39;4.70;;;0.93;;
68315;SDS011;55508;54.368;18.406;2022-08-07T14:37:12;1.20;;;0.50;;
68315;SDS011;55508;54.368;18.406;2022-08-07T14:39:43;2.60;;;0.80;;
68315;SDS011;55508;54.368;18.406;2022-08-07T14:42:31;11.73;;;1.00;;
68315;SDS011;55508;54.368;18.406;2022-08-07T14:45:23;2.38;;;0.88;;
68315;SDS011;55508;54.368;18.406;2022-08-07T14:48:11;4.32;;;1.27;;
68315;SDS011;55508;54.368;18.406;2022-08-07T14:50:46;9.30;;;1.27;;
68315;SDS011;55508;54.368;18.406;2022-08-07T14:53:16;5.07;;;1.02;;
68315;SDS011;55508;54.368;18.406;2022-08-07T14:56:08;4.28;;;1.10;;
68315;SDS011;55508;54.368;18.406;2022-08-07T14:59:03;3.85;;;0.70;;
68315;SDS011;55508;54.368;18.406;2022-08-07T15:01:53;2.25;;;0.90;;
68315;SDS011;55508;54.368;18.406;2022-08-07T15:04:24;4.77;;;0.90;;
68315;SDS011;55508;54.368;18.406;2022-08-07T15:06:54;2.25;;;0.75;;
68315;SDS011;55508;54.368;18.406;2022-08-07T15:09:22;4.13;;;1.08;;
68315;SDS011;55508;54.368;18.406;2022-08-07T15:12:14;2.28;;;0.80;;
68315;SDS011;55508;54.368;18.406;2022-08-07T15:14:52;4.72;;;1.10;;
68315;SDS011;55508;54.368;18.406;2022-08-07T15:17:43;4.60;;;1.02;;
68315;SDS011;55508;54.368;18.406;2022-08-07T15:20:32;3.85;;;0.90;;
68315;SDS011;55508;54.368;18.406;2022-08-07T15:23:24;2.50;;;0.82;;
68315;SDS011;55508;54.368;18.406;2022-08-07T15:26:13;3.72;;;1.10;;
68315;SDS011;55508;54.368;18.406;2022-08-07T15:28:47;3.35;;;0.90;;
68315;SDS011;55508;54.368;18.406;2022-08-07T15:31:34;3.72;;;1.00;;
68315;SDS011;55508;54.368;18.406;2022-08-07T15:34:22;4.05;;;1.20;;
68315;SDS011;55508;54.368;18.406;2022-08-07T15:36:52;2.20;;;0.95;;
68315;SDS011;55508;54.368;18.406;2022-08-07T15:39:36;2.53;;;0.98;;
68315;SDS011;55508;54.368;18.406;2022-08-07T15:42:45;3.72;;;1.13;;
68315;SDS011;55508;54.368;18.406;2022-08-07T15:47:49;2.05;;;1.10;;
68315;SDS011;55508;54.368;18.406;2022-08-07T15:50:44;2.75;;;1.10;;
68315;SDS011;55508;54.368;18.406;2022-08-07T15:53:37;5.25;;;1.25;;
68315;SDS011;55508;54.368;18.406;2022-08-07T15:56:18;3.75;;;1.15;;
68315;SDS011;55508;54.368;18.406;2022-08-07T15:58:51;2.40;;;1.05;;
68315;SDS011;55508;54.368;18.406;2022-08-07T16:04:09;12.27;;;1.48;;
68315;SDS011;55508;54.368;18.406;2022-08-07T16:21:19;2.67;;;1.00;;
68315;SDS011;55508;54.368;18.406;2022-08-07T16:32:57;7.70;;;1.20;;
68315;SDS011;55508;54.368;18.406;2022-08-07T16:36:01;4.20;;;1.05;;
68315;SDS011;55508;54.368;18.406;2022-08-07T16:38:55;1.90;;;1.10;;
68315;SDS011;55508;54.368;18.406;2022-08-07T16:53:42;2.38;;;1.10;;
68315;SDS011;55508;54.368;18.406;2022-08-07T17:00:09;4.05;;;1.00;;
68315;SDS011;55508;54.368;18.406;2022-08-07T17:08:39;2.78;;;1.13;;
68315;SDS011;55508;54.368;18.406;2022-08-07T17:11:45;3.70;;;1.27;;
68315;SDS011;55508;54.368;18.406;2022-08-07T17:14:34;5.97;;;1.20;;
68315;SDS011;55508;54.368;18.406;2022-08-07T17:17:30;2.80;;;1.13;;
68315;SDS011;55508;54.368;18.406;2022-08-07T17:20:28;2.83;;;1.20;;
68315;SDS011;55508;54.368;18.406;2022-08-07T17:29:15;2.45;;;1.58;;
68315;SDS011;55508;54.368;18.406;2022-08-07T17:35:03;2.30;;;1.10;;
68315;SDS011;55508;54.368;18.406;2022-08-07T17:38:05;2.80;;;1.10;;
68315;SDS011;55508;54.368;18.406;2022-08-07T17:44:03;2.95;;;1.40;;
68315;SDS011;55508;54.368;18.406;2022-08-07T17:47:23;4.47;;;1.20;;
68315;SDS011;55508;54.368;18.406;2022-08-07T17:50:21;3.47;;;1.25;;
68315;SDS011;55508;54.368;18.406;2022-08-07T17:52:57;2.25;;;1.38;;
68315;SDS011;55508;54.368;18.406;2022-08-07T17:55:36;3.80;;;1.48;;
68315;SDS011;55508;54.368;18.406;2022-08-07T18:01:26;5.35;;;1.52;;
68315;SDS011;55508;54.368;18.406;2022-08-07T18:10:09;2.92;;;1.90;;
68315;SDS011;55508;54.368;18.406;2022-08-07T18:15:27;3.25;;;1.52;;
68315;SDS011;55508;54.368;18.406;2022-08-07T18:18:12;2.75;;;1.63;;
68315;SDS011;55508;54.368;18.406;2022-08-07T18:30:08;4.70;;;2.03;;
68315;SDS011;55508;54.368;18.406;2022-08-07T18:36:14;5.85;;;2.47;;
68315;SDS011;55508;54.368;18.406;2022-08-07T18:42:02;6.10;;;2.45;;
68315;SDS011;55508;54.368;18.406;2022-08-07T18:44:46;3.47;;;2.20;;
68315;SDS011;55508;54.368;18.406;2022-08-07T18:50:32;5.00;;;2.03;;
68315;SDS011;55508;54.368;18.406;2022-08-07T19:10:45;3.40;;;2.60;;
68315;SDS011;55508;54.368;18.406;2022-08-07T19:16:32;8.70;;;3.05;;
68315;SDS011;55508;54.368;18.406;2022-08-07T19:19:57;3.55;;;2.95;;
68315;SDS011;55508;54.368;18.406;2022-08-07T19:22:27;5.05;;;3.00;;
68315;SDS011;55508;54.368;18.406;2022-08-07T19:25:03;4.80;;;2.70;;
68315;SDS011;55508;54.368;18.406;2022-08-07T19:27:34;6.13;;;3.05;;
68315;SDS011;55508;54.368;18.406;2022-08-07T19:30:30;3.22;;;2.70;;
68315;SDS011;55508;54.368;18.406;2022-08-07T19:33:19;4.95;;;2.90;;
68315;SDS011;55508;54.368;18.406;2022-08-07T19:36:00;3.25;;;3.00;;
68315;SDS011;55508;54.368;18.406;2022-08-07T19:38:29;6.28;;;3.05;;
68315;SDS011;55508;54.368;18.406;2022-08-07T19:40:59;4.50;;;3.35;;
68315;SDS011;55508;54.368;18.406;2022-08-07T19:43:27;12.95;;;3.90;;
68315;SDS011;55508;54.368;18.406;2022-08-07T19:46:16;9.15;;;6.30;;
68315;SDS011;55508;54.368;18.406;2022-08-07T19:49:04;5.80;;;5.30;;
68315;SDS011;55508;54.368;18.406;2022-08-07T19:51:34;8.35;;;6.10;;
68315;SDS011;55508;54.368;18.406;2022-08-07T19:54:19;15.82;;;11.43;;
68315;SDS011;55508;54.368;18.406;2022-08-07T19:57:06;18.17;;;14.77;;
68315;SDS011;55508;54.368;18.406;2022-08-07T19:59:59;20.70;;;15.77;;
68315;SDS011;55508;54.368;18.406;2022-08-07T20:02:39;18.70;;;15.27;;
68315;SDS011;55508;54.368;18.406;2022-08-07T20:05:22;23.52;;;19.75;;
68315;SDS011;55508;54.368;18.406;2022-08-07T20:08:01;26.33;;;18.70;;
68315;SDS011;55508;54.368;18.406;2022-08-07T20:10:31;15.10;;;11.43;;
68315;SDS011;55508;54.368;18.406;2022-08-07T20:13:29;8.73;;;7.50;;
68315;SDS011;55508;54.368;18.406;2022-08-07T20:16:07;8.77;;;7.32;;
68315;SDS011;55508;54.368;18.406;2022-08-07T20:18:57;13.20;;;8.82;;
68315;SDS011;55508;54.368;18.406;2022-08-07T20:21:25;8.48;;;7.00;;
68315;SDS011;55508;54.368;18.406;2022-08-07T20:24:13;11.85;;;7.10;;
68315;SDS011;55508;54.368;18.406;2022-08-07T20:26:44;9.55;;;6.75;;
68315;SDS011;55508;54.368;18.406;2022-08-07T20:29:21;15.95;;;7.22;;
68315;SDS011;55508;54.368;18.406;2022-08-07T20:32:18;8.50;;;6.28;;
68315;SDS011;55508;54.368;18.406;2022-08-07T20:34:52;6.20;;;5.47;;
68315;SDS011;55508;54.368;18.406;2022-08-07T20:37:22;10.18;;;5.50;;
68315;SDS011;55508;54.368;18.406;2022-08-07T20:39:51;6.68;;;5.45;;
68315;SDS011;55508;54.368;18.406;2022-08-07T20:42:30;6.90;;;5.35;;
68315;SDS011;55508;54.368;18.406;2022-08-07T20:45:00;5.55;;;4.93;;
68315;SDS011;55508;54.368;18.406;2022-08-07T20:47:49;5.63;;;4.80;;
68315;SDS011;55508;54.368;18.406;2022-08-07T20:50:24;5.22;;;4.70;;
68315;SDS011;55508;54.368;18.406;2022-08-07T20:52:56;9.98;;;5.22;;
68315;SDS011;55508;54.368;18.406;2022-08-07T20:55:23;6.95;;;5.53;;
68315;SDS011;55508;54.368;18.406;2022-08-07T20:57:55;8.80;;;6.30;;
68315;SDS011;55508;54.368;18.406;2022-08-07T21:00:42;8.02;;;5.57;;
68315;SDS011;55508;54.368;18.406;2022-08-07T21:03:13;6.70;;;5.70;;
68315;SDS011;55508;54.368;18.406;2022-08-07T21:05:46;8.13;;;5.03;;
68315;SDS011;55508;54.368;18.406;2022-08-07T21:08:26;5.57;;;5.00;;
68315;SDS011;55508;54.368;18.406;2022-08-07T21:11:14;9.63;;;5.57;;
68315;SDS011;55508;54.368;18.406;2022-08-07T21:13:54;7.68;;;5.10;;
68315;SDS011;55508;54.368;18.406;2022-08-07T21:17:02;5.45;;;4.95;;
68315;SDS011;55508;54.368;18.406;2022-08-07T21:19:52;6.20;;;4.68;;
68315;SDS011;55508;54.368;18.406;2022-08-07T21:22:32;5.72;;;5.15;;
68315;SDS011;55508;54.368;18.406;2022-08-07T21:25:10;8.75;;;4.97;;